Aérodrome :
LOGIN :

S'inscrire | Disclaimer

   EN    FR    IT 

 










Légende :    VFR   VFR Marginal   IFR   IFR Intensif   IFR Très Intensif
Visi : 
Plafond : 
>= 8 km
>= 3000ft
5 à 8 km
1000 à 3000 ft
1500m à 5 km
500 à 1000 ft
800 à 1500m
200 à 500 ft
< 800m
< 200 ft
Symboles :   Orages  Brouillard  Fortes neiges  Fortes précipitations  Vent > 20 kt
SIGMETs :   Divers  Orages  Givrage  Turbulence  Onde Orograph.  Cendres Volcan.







- Altitude de l'aérodrome : 59 ft
- Code IATA : TSF


LIPH - Treviso

DERNIER METAR :
  • 221150Z 03005KT 360V060 9999 -RA BKN030 18/16 Q1014

METARs EXPIRÉS :
  • 221120Z 03006KT 360V060 5000 -RA FEW008 BKN020 17/16 Q1014 RERA
  • 221050Z 03006KT 2500 RA SCT008 BKN020 16/15 Q1014
  • 221020Z 04005KT 360V060 4000 RA SCT008 BKN030 17/16 Q1014
  • 220950Z 04005KT 010V070 3000 RA FEW015 BKN035 16/15 Q1014
  • 220920Z 04005KT 010V080 5000 RA FEW015 BKN035 17/15 Q1014

TAF TAF LIPH
Valide du 22 à 12h jusqu'au 23 à 12h UTC


221100Z 2212/2312 VRB06KT 9999 SCT040
TEMPO 2212/2218 4000 TSRA
TEMPO 2309/2312 SHRA
Pas de NOTAMs connus pour ce terrain.
1 SIGMET publié pour la FIR Milano (LIMM) :
 
Orages noyés dans la masse
LIMM SIGMET 3 VALID 221020/221220 LIIB
LIMM MILANO FIR EMBD TS OBS S OF LINE N4337 E01058 - N4451 E01317 TOP FL350 MOV N NC=



MET'MAP, la Météo Aéronautique d'un coup d'oeil ! - Copyright ORBIFLY Décembre 2007 - Disclaimer

ORBIFLY MET'MAP TEAM :

Programmation & Développement : Alexandra Zaïnal
Conception & Développement : Baudouin d'Aumeries
Co-Programmation & Développement : Marc-Olivier Méhu
Soutien technique & logistique : Manuel Goepfert

Contact : metmap@orbifly.com




SOURCES & CREDITS :

   NOAA